Hugh R. Sharp — WDC9608 — position and weather

sailwx.info

Track history (hours):
 
Tides and Currents Weather Stations Pressure Air Temp Water Temp Dewpoint Dewpoint Depression Visibility Wind Speed Wind Dir Waves Ship Positions

Oceanographic research ship Hugh R. Sharp (USA)

Ship's website: http://www.ceoe.udel.edu/marine/rvSharp.shtml

Detailed information on ship capabilities available from University of Delaware's Ocean Information Center.

Owner: Warrior & yGulf Navigation Compan, Chickasaw, AL. More information available from US FCC via Universal Licensing System and Coast Guard Vessel Documentation Center.

Last reported at 2019-Nov-18 02:52 UTC. Time now 2019-Dec-11 10:57 UTC.
Position N 39°12' W 076°16'.
Warning: this ship's position is 23 days out of date.

Length 48 m; draft 4 m.

Type: Ship. MMSI: 367063060.

Date/timePositionNaut miles runAvg speedWind from/ knotsBaromVisibWave heightAir tempDewpointWater temp
2019-Nov-18 02:52N 39°12' W 076°16'7 8.1
2019-Nov-18 02:00N 39°06' W 076°20'7 7.5
2019-Nov-18 01:00N 38°59' W 076°22'0 0.2
2019-Nov-17 23:30N 38°59' W 076°22'0 0.1
2019-Nov-17 23:00N 38°59' W 076°22'0 0.1
2019-Nov-17 22:00N 38°59' W 076°22'1 0.5
2019-Nov-17 19:58N 38°58' W 076°23'0 0.0
2019-Nov-17 17:28N 38°58' W 076°23'0 0.0
2019-Nov-17 16:55N 38°58' W 076°23'0 0.0
2019-Nov-17 07:28N 38°58' W 076°23'1 0.2
2019-Nov-17 04:22N 38°59' W 076°22'0 0.0
2019-Nov-17 03:52N 38°59' W 076°22'0 0.0
2019-Nov-17 03:28N 38°59' W 076°22'0 0.0
2019-Nov-17 01:28N 38°59' W 076°22'0 0.0
2019-Nov-16 21:31N 38°59' W 076°22'0 0.5
2019-Nov-16 20:30N 38°59' W 076°22'4 4.1
2019-Nov-16 19:30N 39°03' W 076°22'4 8.7
2019-Nov-16 18:59N 39°07' W 076°20'4 8.5
2019-Nov-16 18:30N 39°11' W 076°17'  
2019-Nov-11 21:26N 38°47' W 075°10'  
Track history (hours):
 
Tides and Currents Weather Stations Pressure Air Temp Water Temp Dewpoint Dewpoint Depression Visibility Wind Speed Wind Dir Waves Ship Positions

Oceanographic research ship Hugh R. Sharp (USA)

Ship's website: http://www.ceoe.udel.edu/marine/rvSharp.shtml

Detailed information on ship capabilities available from University of Delaware's Ocean Information Center.

Owner: Warrior & yGulf Navigation Compan, Chickasaw, AL. More information available from US FCC via Universal Licensing System and Coast Guard Vessel Documentation Center.

Last reported at 2019-Nov-18 02:52 UTC. Time now 2019-Dec-11 10:57 UTC.
Position N 39°12' W 076°16'.
Warning: this ship's position is 23 days out of date.

Length 48 m; draft 4 m.

Type: Ship. MMSI: 367063060.

Date/timePositionNaut miles runAvg speedWind from/ knotsBaromVisibWave heightAir tempDewpointWater temp
2019-Nov-18 02:52N 39°12' W 076°16'7 8.1
2019-Nov-18 02:00N 39°06' W 076°20'7 7.5
2019-Nov-18 01:00N 38°59' W 076°22'0 0.2
2019-Nov-17 23:30N 38°59' W 076°22'0 0.1
2019-Nov-17 23:00N 38°59' W 076°22'0 0.1
2019-Nov-17 22:00N 38°59' W 076°22'1 0.5
2019-Nov-17 19:58N 38°58' W 076°23'0 0.0
2019-Nov-17 17:28N 38°58' W 076°23'0 0.0
2019-Nov-17 16:55N 38°58' W 076°23'0 0.0
2019-Nov-17 07:28N 38°58' W 076°23'1 0.2
2019-Nov-17 04:22N 38°59' W 076°22'0 0.0
2019-Nov-17 03:52N 38°59' W 076°22'0 0.0
2019-Nov-17 03:28N 38°59' W 076°22'0 0.0
2019-Nov-17 01:28N 38°59' W 076°22'0 0.0
2019-Nov-16 21:31N 38°59' W 076°22'0 0.5
2019-Nov-16 20:30N 38°59' W 076°22'4 4.1
2019-Nov-16 19:30N 39°03' W 076°22'4 8.7
2019-Nov-16 18:59N 39°07' W 076°20'4 8.5
2019-Nov-16 18:30N 39°11' W 076°17'  
2019-Nov-11 21:26N 38°47' W 075°10'  

Dump ship's entire track history